createdAt,value
2018-07-17T00:00:14.129Z,25.67
2018-07-17T00:02:42.817Z,25.20
2018-07-17T00:05:11.531Z,25.87
2018-07-17T00:07:39.723Z,25.73
2018-07-17T00:10:08.554Z,26.70
2018-07-17T00:12:36.965Z,30.13
2018-07-17T00:15:05.590Z,23.37
2018-07-17T00:17:34.779Z,28.00
2018-07-17T00:20:03.411Z,30.60
2018-07-17T00:22:31.550Z,26.90
2018-07-17T00:25:00.427Z,24.60
2018-07-17T00:27:29.025Z,26.87
2018-07-17T00:29:57.204Z,26.80
2018-07-17T00:32:25.678Z,28.47
2018-07-17T00:34:53.811Z,29.30
2018-07-17T00:37:22.356Z,23.83
2018-07-17T00:39:50.935Z,30.20
2018-07-17T00:42:19.392Z,24.10
2018-07-17T00:44:47.574Z,29.53
2018-07-17T00:47:16.070Z,23.33
2018-07-17T00:49:44.587Z,25.47
2018-07-17T00:52:12.979Z,23.70
2018-07-17T00:54:41.617Z,26.30
2018-07-17T00:57:10.142Z,25.00
2018-07-17T00:59:38.242Z,28.37
2018-07-17T01:02:12.136Z,31.20
2018-07-17T01:04:45.576Z,28.77
2018-07-17T01:07:19.054Z,30.60
2018-07-17T01:09:52.567Z,29.50
2018-07-17T01:12:20.274Z,34.30
2018-07-17T01:14:53.536Z,31.43
2018-07-17T01:17:22.986Z,28.17
2018-07-17T01:19:51.638Z,37.90
2018-07-17T01:22:27.268Z,29.47
2018-07-17T01:24:59.302Z,27.87
2018-07-17T01:27:33.120Z,30.60
2018-07-17T01:30:02.192Z,28.10
2018-07-17T01:32:30.962Z,31.00
2018-07-17T01:34:59.454Z,28.97
2018-07-17T01:37:28.382Z,32.43
2018-07-17T01:39:57.950Z,29.97
2018-07-17T01:42:26.274Z,29.40
2018-07-17T01:44:57.688Z,34.17
2018-07-17T01:47:29.187Z,29.33
2018-07-17T01:50:00.583Z,32.20
2018-07-17T01:52:28.896Z,27.43
2018-07-17T01:54:57.426Z,36.90
2018-07-17T01:57:25.607Z,33.93
2018-07-17T01:59:54.041Z,38.47
2018-07-17T02:02:22.612Z,37.20
2018-07-17T02:04:51.440Z,33.70
2018-07-17T02:07:19.885Z,42.03
2018-07-17T02:09:48.472Z,37.20
2018-07-17T02:12:17.009Z,33.87
2018-07-17T02:14:45.139Z,30.03
2018-07-17T02:17:13.591Z,30.03
2018-07-17T02:19:42.456Z,27.47
2018-07-17T02:22:11.024Z,25.17
2018-07-17T02:24:39.482Z,26.03
2018-07-17T02:27:07.670Z,28.80
2018-07-17T02:29:35.854Z,33.80
2018-07-17T02:32:04.324Z,36.27
2018-07-17T02:34:32.488Z,33.03
2018-07-17T02:37:01.035Z,32.93
2018-07-17T02:39:29.161Z,30.90
2018-07-17T02:41:57.699Z,34.50
2018-07-17T02:44:25.983Z,36.53
2018-07-17T02:46:54.667Z,32.87
2018-07-17T02:49:22.802Z,31.50
2018-07-17T02:51:50.912Z,34.53
2018-07-17T02:54:19.037Z,26.07
2018-07-17T02:56:47.185Z,29.70
2018-07-17T02:59:15.729Z,31.70
2018-07-17T03:01:43.821Z,31.57
2018-07-17T03:04:12.322Z,37.20
2018-07-17T03:06:40.585Z,32.80
2018-07-17T03:09:09.054Z,29.60
2018-07-17T03:11:38.167Z,28.83
2018-07-17T03:14:06.868Z,34.83
2018-07-17T03:16:35.385Z,33.60
2018-07-17T03:19:03.771Z,33.33
2018-07-17T03:21:35.177Z,38.07
2018-07-17T03:24:05.382Z,33.90
2018-07-17T03:26:34.097Z,40.90
2018-07-17T03:29:02.642Z,39.10
2018-07-17T03:31:32.251Z,38.53
2018-07-17T03:34:01.145Z,40.40
2018-07-17T03:36:29.884Z,34.03
2018-07-17T03:38:57.849Z,36.73
2018-07-17T03:41:28.925Z,38.50
2018-07-17T03:43:57.581Z,34.67
2018-07-17T03:46:25.811Z,33.17
2018-07-17T03:48:54.507Z,42.10
2018-07-17T03:51:23.476Z,28.03
2018-07-17T03:53:51.714Z,27.43
2018-07-17T03:56:20.169Z,33.80
2018-07-17T03:58:49.458Z,31.80
2018-07-17T04:01:19.355Z,33.70
2018-07-17T04:03:49.785Z,33.10
2018-07-17T04:06:18.363Z,28.07
2018-07-17T04:08:47.503Z,28.47
2018-07-17T04:11:16.274Z,25.37
2018-07-17T04:13:44.743Z,32.23
2018-07-17T04:16:13.318Z,28.00
2018-07-17T04:18:42.023Z,25.20
2018-07-17T04:21:10.471Z,26.50
2018-07-17T04:23:38.899Z,32.20
2018-07-17T04:26:08.585Z,26.50
2018-07-17T04:28:37.253Z,29.70
2018-07-17T04:31:05.596Z,25.93
2018-07-17T04:33:34.469Z,26.10
2018-07-17T04:36:02.698Z,27.23
2018-07-17T04:38:30.983Z,25.20
2018-07-17T04:40:59.061Z,28.43
2018-07-17T04:43:27.184Z,25.63
2018-07-17T04:45:59.565Z,27.40
2018-07-17T04:48:28.200Z,29.20
2018-07-17T04:50:58.916Z,23.10
2018-07-17T04:53:27.188Z,25.20
2018-07-17T04:55:56.042Z,21.97
2018-07-17T04:58:24.426Z,28.60
2018-07-17T05:00:53.032Z,30.13
2018-07-17T05:03:23.206Z,26.73
2018-07-17T05:05:58.305Z,29.33
2018-07-17T05:08:26.892Z,26.80
2018-07-17T05:10:55.438Z,26.17
2018-07-17T05:13:24.208Z,26.80
2018-07-17T05:15:53.307Z,25.00
2018-07-17T05:18:21.529Z,27.60
2018-07-17T05:20:57.552Z,21.83
2018-07-17T05:23:27.438Z,26.90
2018-07-17T05:28:52.310Z,26.07
2018-07-17T05:31:20.788Z,24.03
2018-07-17T05:33:49.287Z,23.47
2018-07-17T05:36:17.873Z,25.87
2018-07-17T05:38:46.368Z,24.23
2018-07-17T05:41:14.886Z,26.60
2018-07-17T05:43:43.334Z,29.30
2018-07-17T05:46:12.939Z,25.17
2018-07-17T05:48:41.596Z,24.63
2018-07-17T05:51:10.801Z,22.80
2018-07-17T05:53:39.719Z,25.83
2018-07-17T05:56:08.537Z,24.87
2018-07-17T05:58:37.228Z,22.30
2018-07-17T06:01:05.743Z,26.90
2018-07-17T06:03:39.402Z,25.67
2018-07-17T06:06:08.333Z,25.70
2018-07-17T06:08:37.110Z,23.90
2018-07-17T06:11:05.919Z,28.60
2018-07-17T06:13:34.530Z,26.43
2018-07-17T06:16:02.722Z,24.20
2018-07-17T06:18:31.268Z,22.90
2018-07-17T06:20:59.412Z,22.93
2018-07-17T06:23:27.962Z,21.00
2018-07-17T06:25:56.613Z,27.03
2018-07-17T06:28:25.579Z,21.43
2018-07-17T06:30:54.131Z,21.10
2018-07-17T06:33:22.784Z,22.67
2018-07-17T06:35:51.313Z,20.57
2018-07-17T06:38:19.908Z,22.23
2018-07-17T06:40:48.377Z,21.53
2018-07-17T06:43:16.814Z,23.90
2018-07-17T06:45:45.451Z,19.63
2018-07-17T06:48:14.280Z,19.17
2018-07-17T06:50:42.863Z,23.20
2018-07-17T06:53:11.781Z,19.63
2018-07-17T06:55:40.357Z,21.03
2018-07-17T06:58:08.988Z,23.13
2018-07-17T07:00:42.529Z,21.20
2018-07-17T07:03:15.018Z,19.70
2018-07-17T07:05:43.751Z,20.70
2018-07-17T07:08:11.901Z,21.87
2018-07-17T07:10:40.425Z,19.20
2018-07-17T07:13:09.050Z,22.97
2018-07-17T07:15:37.509Z,21.27
2018-07-17T07:18:06.109Z,30.73
2018-07-17T07:20:34.567Z,22.00
2018-07-17T07:23:03.106Z,19.27
2018-07-17T07:25:31.667Z,24.43
2018-07-17T07:28:00.574Z,18.77
2018-07-17T07:30:29.159Z,17.23
2018-07-17T07:32:58.503Z,20.53
2018-07-17T07:35:27.181Z,19.17
2018-07-17T07:37:56.099Z,17.67
2018-07-17T07:40:24.228Z,22.37
2018-07-17T07:45:50.036Z,19.13
2018-07-17T07:48:18.445Z,19.27
2018-07-17T07:50:46.885Z,19.77
2018-07-17T07:53:15.389Z,22.43
2018-07-17T07:55:44.465Z,15.63
2018-07-17T07:58:13.101Z,16.30
2018-07-17T08:00:41.274Z,15.27
2018-07-17T08:03:09.849Z,16.63
2018-07-17T08:05:38.369Z,18.10
2018-07-17T08:08:06.920Z,18.70
2018-07-17T08:10:35.274Z,16.17
2018-07-17T08:13:04.108Z,23.57
2018-07-17T08:15:32.846Z,16.00
2018-07-17T08:18:01.409Z,13.10
2018-07-17T08:20:30.154Z,13.70
2018-07-17T08:22:58.991Z,12.90
2018-07-17T08:25:27.624Z,14.83
2018-07-17T08:27:56.189Z,14.37
2018-07-17T08:30:25.162Z,11.40
2018-07-17T08:32:53.824Z,14.67
2018-07-17T08:35:22.076Z,13.27
2018-07-17T08:37:50.671Z,16.10
2018-07-17T08:40:18.857Z,11.60
2018-07-17T08:42:47.331Z,10.67
2018-07-17T08:45:15.815Z,11.07
2018-07-17T08:50:47.331Z,10.03
2018-07-17T08:53:15.709Z,12.30
2018-07-17T08:55:44.508Z,12.07
2018-07-17T08:58:13.028Z,9.60
2018-07-17T09:00:41.758Z,11.03
2018-07-17T09:03:10.215Z,9.47
2018-07-17T09:05:38.801Z,10.97
2018-07-17T09:08:09.558Z,11.30
2018-07-17T09:10:38.272Z,11.13
2018-07-17T09:13:06.876Z,11.57
2018-07-17T09:15:39.992Z,10.17
2018-07-17T09:18:08.788Z,10.10
2018-07-17T09:20:37.282Z,13.40
2018-07-17T09:23:08.918Z,10.40
2018-07-17T09:25:37.445Z,12.80
2018-07-17T09:28:05.584Z,7.80
2018-07-17T09:30:39.184Z,9.23
2018-07-17T09:33:07.955Z,6.67
2018-07-17T09:35:36.148Z,6.77
2018-07-17T09:40:57.597Z,7.80
2018-07-17T09:43:26.314Z,10.07
2018-07-17T09:45:54.862Z,7.20
2018-07-17T09:48:23.324Z,9.20
2018-07-17T09:50:52.348Z,7.47
2018-07-17T09:53:21.307Z,6.30
2018-07-17T09:55:49.986Z,6.90
2018-07-17T09:58:19.099Z,6.30
2018-07-17T10:00:52.877Z,6.90
2018-07-17T10:03:21.696Z,6.87
2018-07-17T10:05:50.673Z,5.67
2018-07-17T10:08:19.641Z,6.63
2018-07-17T10:10:48.101Z,7.03
2018-07-17T10:13:16.586Z,6.57
2018-07-17T10:15:45.232Z,6.80
2018-07-17T10:18:13.701Z,6.60
2018-07-17T10:20:42.604Z,12.93
2018-07-17T10:23:11.430Z,6.40
2018-07-17T10:25:40.031Z,9.83
2018-07-17T10:28:08.541Z,8.20
2018-07-17T10:30:37.058Z,11.80
2018-07-17T10:33:05.960Z,6.20
2018-07-17T10:35:34.397Z,6.40
2018-07-17T10:38:02.909Z,6.97
2018-07-17T10:40:31.421Z,5.87
2018-07-17T10:43:00.419Z,6.07
2018-07-17T10:45:29.501Z,5.20
2018-07-17T10:47:58.551Z,5.47
2018-07-17T10:50:26.964Z,7.30
2018-07-17T10:52:55.659Z,9.77
2018-07-17T10:55:24.371Z,6.43
2018-07-17T10:57:53.015Z,6.97
2018-07-17T11:00:21.949Z,6.30
2018-07-17T11:05:46.510Z,6.57
2018-07-17T11:08:14.960Z,7.13
2018-07-17T11:10:43.684Z,5.60
2018-07-17T11:13:12.297Z,6.53
2018-07-17T11:18:37.659Z,6.67
2018-07-17T11:21:06.506Z,5.50
2018-07-17T11:23:34.990Z,6.77
2018-07-17T11:26:03.185Z,8.60
2018-07-17T11:28:31.752Z,5.77
2018-07-17T11:31:00.243Z,9.53
2018-07-17T11:33:28.809Z,5.57
2018-07-17T11:35:57.408Z,5.60
2018-07-17T11:38:54.209Z,5.50
2018-07-17T11:44:18.318Z,4.80
2018-07-17T11:46:46.795Z,5.10
2018-07-17T11:49:15.553Z,4.97
2018-07-17T11:51:48.782Z,6.20
2018-07-17T11:54:17.529Z,5.70
2018-07-17T11:56:46.031Z,6.20
2018-07-17T11:59:15.184Z,7.23
2018-07-17T12:02:04.325Z,5.10
2018-07-17T12:04:42.287Z,7.10
2018-07-17T12:07:20.831Z,5.00
2018-07-17T12:09:50.327Z,4.37
2018-07-17T12:12:19.357Z,4.70
2018-07-17T12:14:48.004Z,8.27
2018-07-17T12:17:16.756Z,4.90
2018-07-17T12:19:45.295Z,5.37
2018-07-17T12:22:15.000Z,3.97
2018-07-17T12:24:43.861Z,5.13
2018-07-17T12:27:12.475Z,4.10
2018-07-17T12:29:41.649Z,4.00
2018-07-17T12:32:10.861Z,4.67
2018-07-17T12:34:39.937Z,4.33
2018-07-17T12:37:08.522Z,20.57
2018-07-17T12:39:37.622Z,4.07
2018-07-17T12:42:06.388Z,3.93
2018-07-17T12:44:35.451Z,4.63
2018-07-17T12:47:04.307Z,6.70
2018-07-17T12:49:32.781Z,4.30
2018-07-17T12:52:01.386Z,4.97
2018-07-17T12:54:30.215Z,4.50
2018-07-17T12:56:59.529Z,3.97
2018-07-17T12:59:28.102Z,4.57
2018-07-17T13:01:56.893Z,5.17
2018-07-17T13:04:30.770Z,4.00
2018-07-17T13:06:59.360Z,4.23
2018-07-17T13:09:28.009Z,3.77
2018-07-17T13:11:56.755Z,14.47
2018-07-17T13:14:32.506Z,10.73
2018-07-17T13:17:01.513Z,4.00
2018-07-17T13:19:30.320Z,4.13
2018-07-17T13:21:58.441Z,3.77
2018-07-17T13:24:27.482Z,6.13
2018-07-17T13:26:57.263Z,5.00
2018-07-17T13:29:32.793Z,5.50
2018-07-17T13:32:02.284Z,4.30
2018-07-17T13:34:34.905Z,4.00
2018-07-17T13:37:04.732Z,3.83
2018-07-17T13:39:33.866Z,10.33
2018-07-17T13:42:02.399Z,4.57
2018-07-17T13:44:31.213Z,3.50
2018-07-17T13:46:59.501Z,4.43
2018-07-17T13:49:27.880Z,3.80
2018-07-17T13:54:53.442Z,4.40
2018-07-17T13:57:25.122Z,8.70
2018-07-17T13:59:55.988Z,8.33
2018-07-17T14:02:25.071Z,9.33
2018-07-17T14:04:53.622Z,7.03
2018-07-17T14:07:22.397Z,4.93
2018-07-17T14:09:50.988Z,5.60
2018-07-17T14:12:20.339Z,4.30
2018-07-17T14:14:49.408Z,3.73
2018-07-17T14:17:18.719Z,4.30
2018-07-17T14:19:47.824Z,3.67
2018-07-17T14:22:16.957Z,4.17
2018-07-17T14:24:50.369Z,7.70
2018-07-17T14:27:18.899Z,7.17
2018-07-17T14:29:47.124Z,4.07
2018-07-17T14:32:17.931Z,4.80
2018-07-17T14:34:46.473Z,6.40
2018-07-17T14:37:14.950Z,6.03
2018-07-17T14:39:43.560Z,3.80
2018-07-17T14:42:12.170Z,3.60
2018-07-17T14:44:40.706Z,4.00
2018-07-17T14:47:09.317Z,6.67
2018-07-17T14:49:43.185Z,7.60
2018-07-17T14:52:12.479Z,7.70
2018-07-17T14:54:41.128Z,5.27
2018-07-17T14:57:10.485Z,6.63
2018-07-17T15:02:41.151Z,5.20
2018-07-17T15:05:12.569Z,5.83
2018-07-17T15:07:41.687Z,7.93
2018-07-17T15:10:12.095Z,5.53
2018-07-17T15:12:44.198Z,5.03
2018-07-17T15:15:14.957Z,14.87
2018-07-17T15:17:44.734Z,10.20
2018-07-17T15:20:38.317Z,4.50
2018-07-17T15:23:07.668Z,7.13
2018-07-17T15:25:37.127Z,4.03
2018-07-17T15:28:09.322Z,4.63
2018-07-17T15:30:38.489Z,6.20
2018-07-17T15:33:07.296Z,4.60
2018-07-17T15:35:37.212Z,4.07
2018-07-17T15:38:06.130Z,4.90
2018-07-17T15:40:34.403Z,17.57
2018-07-17T15:43:03.225Z,6.93
2018-07-17T15:45:31.949Z,6.27
2018-07-17T15:48:00.732Z,10.80
2018-07-17T15:50:29.404Z,11.87
2018-07-17T15:53:03.698Z,12.80
2018-07-17T15:55:34.038Z,16.43
2018-07-17T15:58:02.766Z,23.13
2018-07-17T16:00:32.581Z,6.80
2018-07-17T16:03:01.147Z,6.97
2018-07-17T16:05:30.224Z,5.80
2018-07-17T16:07:59.574Z,5.30
2018-07-17T16:10:28.161Z,11.43
2018-07-17T16:12:56.429Z,9.80
2018-07-17T16:15:26.800Z,5.57
2018-07-17T16:17:55.344Z,4.23
2018-07-17T16:20:23.989Z,5.83
2018-07-17T16:22:52.831Z,3.83
2018-07-17T16:25:21.599Z,5.30
2018-07-17T16:27:50.194Z,4.20
2018-07-17T16:30:19.374Z,4.37
2018-07-17T16:32:49.963Z,4.43
2018-07-17T16:35:21.293Z,7.93
2018-07-17T16:37:50.560Z,7.33
2018-07-17T16:40:19.588Z,2.97
2018-07-17T16:42:48.658Z,5.80
2018-07-17T16:45:17.913Z,7.53
2018-07-17T16:47:46.399Z,3.60
2018-07-17T16:50:16.661Z,3.73
2018-07-17T16:56:01.502Z,3.80
2018-07-17T16:58:32.809Z,8.00
2018-07-17T17:03:58.023Z,4.23
2018-07-17T17:06:29.929Z,17.40
2018-07-17T17:08:59.629Z,15.83
2018-07-17T17:11:31.321Z,4.37
2018-07-17T17:14:00.967Z,4.93
2018-07-17T17:16:32.288Z,3.97
2018-07-17T17:19:00.873Z,6.60
2018-07-17T17:24:26.054Z,4.23
2018-07-17T17:26:57.855Z,4.40
2018-07-17T17:29:29.728Z,4.83
2018-07-17T17:31:58.952Z,6.60
2018-07-17T17:34:27.425Z,6.07
2018-07-17T17:36:56.915Z,4.53
2018-07-17T17:39:25.351Z,5.53
2018-07-17T17:41:54.434Z,8.60
2018-07-17T17:47:19.376Z,5.30
2018-07-17T17:49:53.650Z,4.60
2018-07-17T17:55:19.815Z,4.23
2018-07-17T17:57:49.371Z,6.63
2018-07-17T18:00:18.490Z,4.13
2018-07-17T18:02:46.793Z,4.93
2018-07-17T18:05:15.941Z,3.87
2018-07-17T18:07:44.930Z,4.00
2018-07-17T18:10:15.453Z,3.97
2018-07-17T18:12:44.544Z,3.93
2018-07-17T18:15:13.245Z,7.83
2018-07-17T18:17:47.079Z,4.37
2018-07-17T18:20:17.326Z,5.60
2018-07-17T18:22:47.582Z,6.90
2018-07-17T18:25:18.487Z,4.67
2018-07-17T18:27:48.247Z,4.63
2018-07-17T18:30:18.797Z,4.20
2018-07-17T18:35:39.863Z,4.90
2018-07-17T18:38:08.947Z,3.90
2018-07-17T18:40:37.997Z,4.23
2018-07-17T18:43:10.172Z,3.50
2018-07-17T18:45:39.759Z,4.23
2018-07-17T18:48:08.311Z,3.73
2018-07-17T18:50:37.443Z,3.60
2018-07-17T18:53:11.354Z,3.57
2018-07-17T18:55:43.418Z,4.30
2018-07-17T18:58:17.516Z,4.00
2018-07-17T19:00:47.592Z,4.77
2018-07-17T19:03:16.034Z,5.77
2018-07-17T19:05:44.973Z,4.17
2018-07-17T19:08:13.540Z,3.90
2018-07-17T19:10:42.636Z,4.40
2018-07-17T19:13:11.012Z,3.93
2018-07-17T19:15:39.382Z,4.77
2018-07-17T19:18:08.281Z,7.00
2018-07-17T19:20:43.955Z,3.60
2018-07-17T19:23:12.982Z,9.10
2018-07-17T19:25:41.477Z,5.60
2018-07-17T19:28:15.372Z,4.63
2018-07-17T19:30:44.835Z,4.87
2018-07-17T19:33:18.432Z,5.00
2018-07-17T19:35:56.557Z,4.50
2018-07-17T19:38:25.858Z,4.93
2018-07-17T19:41:02.444Z,5.60
2018-07-17T19:43:38.095Z,4.47
2018-07-17T19:46:09.468Z,4.70
2018-07-17T19:48:41.174Z,10.83
2018-07-17T19:51:13.730Z,5.33
2018-07-17T19:53:46.323Z,3.57
2018-07-17T19:56:17.220Z,4.10
2018-07-17T19:58:45.971Z,4.40
2018-07-17T20:01:14.819Z,3.93
2018-07-17T20:03:43.693Z,4.63
2018-07-17T20:06:12.020Z,3.90
2018-07-17T20:08:40.298Z,4.33
2018-07-17T20:11:16.576Z,5.43
2018-07-17T20:13:45.539Z,4.37
2018-07-17T20:16:13.988Z,4.40
2018-07-17T20:18:42.194Z,4.53
2018-07-17T20:21:10.802Z,4.30
2018-07-17T20:23:39.046Z,4.17
2018-07-17T20:26:12.127Z,4.10
2018-07-17T20:28:41.298Z,4.23
2018-07-17T20:31:09.895Z,3.70
2018-07-17T20:33:39.202Z,3.50
2018-07-17T20:36:07.907Z,4.00
2018-07-17T20:38:36.253Z,4.33
2018-07-17T20:41:04.886Z,4.67
2018-07-17T20:43:33.834Z,3.97
2018-07-17T20:46:02.185Z,4.10
2018-07-17T20:48:31.409Z,3.93
2018-07-17T20:50:59.529Z,4.77
2018-07-17T20:53:28.386Z,6.87
2018-07-17T20:55:56.994Z,4.83
2018-07-17T20:58:25.153Z,3.70
2018-07-17T21:00:53.268Z,6.23
2018-07-17T21:03:22.481Z,3.63
2018-07-17T21:05:50.714Z,4.20
2018-07-17T21:08:19.924Z,5.40
2018-07-17T21:10:48.219Z,4.20
2018-07-17T21:13:16.864Z,4.60
2018-07-17T21:15:45.023Z,3.80
2018-07-17T21:18:13.282Z,4.20
2018-07-17T21:20:41.708Z,5.33
2018-07-17T21:23:10.211Z,8.23
2018-07-17T21:25:39.066Z,3.60
2018-07-17T21:28:07.610Z,4.30
2018-07-17T21:30:35.854Z,5.67
2018-07-17T21:33:04.492Z,4.00
2018-07-17T21:35:32.680Z,3.93
2018-07-17T21:38:01.158Z,10.20
2018-07-17T21:40:29.335Z,5.23
2018-07-17T21:42:57.830Z,3.80
2018-07-17T21:45:26.192Z,3.73
2018-07-17T21:47:54.548Z,6.10
2018-07-17T21:50:22.990Z,4.17
2018-07-17T21:52:51.514Z,4.30
2018-07-17T21:55:19.973Z,4.07
2018-07-17T21:57:48.182Z,4.00
2018-07-17T22:00:16.332Z,3.80
2018-07-17T22:02:44.541Z,4.10
2018-07-17T22:05:13.077Z,4.63
2018-07-17T22:07:41.229Z,5.67
2018-07-17T22:10:09.692Z,4.07
2018-07-17T22:12:37.859Z,3.70
2018-07-17T22:15:06.054Z,4.77
2018-07-17T22:17:34.567Z,4.43
2018-07-17T22:20:03.617Z,4.70
2018-07-17T22:22:32.067Z,4.13
2018-07-17T22:25:00.593Z,4.30
2018-07-17T22:27:29.119Z,6.23
2018-07-17T22:29:57.293Z,4.23
2018-07-17T22:32:25.820Z,4.10
2018-07-17T22:34:53.911Z,5.97
2018-07-17T22:37:22.045Z,7.83
2018-07-17T22:39:50.504Z,4.20
2018-07-17T22:42:18.979Z,4.17
2018-07-17T22:44:47.387Z,6.23
2018-07-17T22:47:15.847Z,4.43
2018-07-17T22:49:44.012Z,5.23
2018-07-17T22:52:12.128Z,6.43
2018-07-17T22:54:40.653Z,4.37
2018-07-17T22:57:09.116Z,4.30
2018-07-17T22:59:37.702Z,5.43
2018-07-17T23:02:06.365Z,7.10
2018-07-17T23:04:34.503Z,4.80
2018-07-17T23:07:02.752Z,5.03
2018-07-17T23:09:31.837Z,4.53
2018-07-17T23:12:00.311Z,4.90
2018-07-17T23:14:28.718Z,5.57
2018-07-17T23:16:56.830Z,4.70
2018-07-17T23:19:25.350Z,4.50
2018-07-17T23:21:53.789Z,5.00
2018-07-17T23:24:22.239Z,4.80
2018-07-17T23:26:53.651Z,4.53
2018-07-17T23:29:21.887Z,4.60
2018-07-17T23:34:46.553Z,4.77
2018-07-17T23:37:14.955Z,3.60
2018-07-17T23:39:43.198Z,5.23
2018-07-17T23:42:11.447Z,4.30
2018-07-17T23:44:39.607Z,4.57
2018-07-17T23:47:07.728Z,6.13
2018-07-17T23:49:38.636Z,4.70
2018-07-17T23:52:07.627Z,5.43
2018-07-17T23:54:35.742Z,6.00
2018-07-17T23:57:04.270Z,5.17
2018-07-17T23:59:32.541Z,4.40
